Time;durP1;ratioP1;P1;durP2;ratioP2;P2;SDS_P1;SDS_P2;PMS_P1;PMS_P2;Temp;Humidity;BMP_temperature;BMP_pressure;BME280_temperature;BME280_humidity;BME280_pressure;Samples;Min_cycle;Max_cycle;Signal;HPM_P1;HPM_P2
2023/06/29 01:52:16;;;;;;;;;;;17.90;99.90;;;;;;4766878;30;19970;-94
2023/06/29 01:55:33;;;;;;;;;;;17.90;99.90;;;;;;4782696;29;20053;-94
2023/06/29 07:51:03;;;;;;;;;;;21.20;99.90;;;;;;4799579;29;20126;-94
2023/06/29 07:54:06;;;;;;;;;;;21.00;99.90;;;;;;4826984;29;19949;-93
2023/06/29 08:03:48;;;;;;;;;;;20.90;99.90;;;;;;4799452;29;20016;-95
2023/06/29 08:42:55;;;;;;;;;;;21.70;99.90;;;;;;4797855;29;20286;-90
2023/06/29 09:30:37;;;;;;;;;;;22.80;99.90;;;;;;4818141;29;20374;-92
2023/06/29 09:33:21;;;;;;;;;;;22.90;99.90;;;;;;4801018;29;19968;-93
2023/06/29 09:39:07;;;;;;;;;;;22.90;99.90;;;;;;4819773;29;19928;-91
2023/06/29 09:41:53;;;;;;;;;;;22.90;99.90;;;;;;4779621;29;20430;-92
2023/06/29 09:44:37;;;;;;;;;;;23.00;99.90;;;;;;4809132;29;20137;-91
2023/06/29 09:47:09;;;;;;;;;;;23.00;99.90;;;;;;4802699;29;19924;-91
2023/06/29 09:50:41;;;;;;;;;;;23.00;99.90;;;;;;4791892;29;19929;-92
2023/06/29 09:52:45;;;;;;;;;;;22.80;99.90;;;;;;4794295;29;19928;-91
2023/06/29 09:55:11;;;;;;;;;;;22.70;99.90;;;;;;4798634;29;20362;-91
2023/06/29 09:57:42;;;;;;;;;;;22.60;99.90;;;;;;4788509;29;19935;-92
2023/06/29 10:00:18;;;;;;;;;;;22.50;99.90;;;;;;4786383;29;19932;-91
2023/06/29 10:05:40;;;;;;;;;;;22.30;99.90;;;;;;4807933;29;20399;-92
2023/06/29 10:11:18;;;;;;;;;;;22.20;99.90;;;;;;4872321;23;20028;-93
2023/06/29 10:13:54;;;;;;;;;;;22.20;99.90;;;;;;4839011;29;20747;-92
2023/06/29 10:16:22;;;;;;;;;;;22.00;99.90;;;;;;4826900;29;20384;-92
2023/06/29 10:18:53;;;;;;;;;;;22.10;99.90;;;;;;4824662;24;20326;-92
2023/06/29 10:21:22;;;;;;;;;;;22.20;99.90;;;;;;4821737;29;19949;-92
2023/06/29 10:23:57;;;;;;;;;;;22.20;99.90;;;;;;4809427;29;19932;-92
2023/06/29 10:26:33;;;;;;;;;;;22.20;99.90;;;;;;4811997;29;19983;-92
2023/06/29 10:29:02;;;;;;;;;;;22.20;99.90;;;;;;4817580;29;19936;-90
2023/06/29 10:31:50;;;;;;;;;;;22.10;99.90;;;;;;4825111;29;19927;-91
2023/06/29 10:34:30;;;;;;;;;;;22.00;99.90;;;;;;4826410;29;19928;-92
2023/06/29 10:37:40;;;;;;;;;;;21.80;99.90;;;;;;4809816;29;19960;-91
2023/06/29 10:40:16;;;;;;;;;;;21.80;99.90;;;;;;4824962;29;20361;-92
2023/06/29 10:42:41;;;;;;;;;;;21.70;99.90;;;;;;4824018;29;20377;-91
2023/06/29 10:45:20;;;;;;;;;;;21.70;99.90;;;;;;4832434;29;19924;-92
2023/06/29 10:48:12;;;;;;;;;;;21.60;99.90;;;;;;4810242;29;19936;-92
2023/06/29 10:50:45;;;;;;;;;;;21.60;99.90;;;;;;4836095;29;19997;-91
2023/06/29 10:53:19;;;;;;;;;;;21.60;99.90;;;;;;4823830;29;20305;-91
2023/06/29 10:55:44;;;;;;;;;;;21.70;99.90;;;;;;4826832;29;19966;-91
2023/06/29 10:58:21;;;;;;;;;;;21.70;99.90;;;;;;4818133;29;19932;-92
2023/06/29 11:00:47;;;;;;;;;;;21.60;99.90;;;;;;4808110;29;19924;-91
2023/06/29 11:03:14;;;;;;;;;;;21.70;99.90;;;;;;4819834;29;20361;-91
2023/06/29 11:05:39;;;;;;;;;;;21.70;99.90;;;;;;4825924;29;20388;-92
2023/06/29 11:08:07;;;;;;;;;;;21.80;99.90;;;;;;4816470;29;19989;-91
2023/06/29 11:10:33;;;;;;;;;;;21.90;99.90;;;;;;4813325;29;19928;-90
2023/06/29 11:13:07;;;;;;;;;;;22.00;99.90;;;;;;4815331;29;19987;-92
2023/06/29 11:15:34;;;;;;;;;;;22.10;99.90;;;;;;4823521;29;19929;-91
2023/06/29 11:18:04;;;;;;;;;;;22.10;99.90;;;;;;4823841;29;19924;-91
2023/06/29 11:20:30;;;;;;;;;;;22.10;99.90;;;;;;4834093;29;20266;-91
2023/06/29 11:23:08;;;;;;;;;;;22.30;99.90;;;;;;4824351;29;19924;-92
2023/06/29 11:25:36;;;;;;;;;;;22.30;99.90;;;;;;4809235;29;19936;-92
2023/06/29 11:28:03;;;;;;;;;;;22.60;99.90;;;;;;4822973;29;20391;-92
2023/06/29 11:30:29;;;;;;;;;;;22.70;99.90;;;;;;4818374;29;20008;-91
2023/06/29 11:32:54;;;;;;;;;;;22.90;99.90;;;;;;4825563;29;19988;-91
2023/06/29 11:35:21;;;;;;;;;;;23.00;99.90;;;;;;4818298;29;19978;-92
2023/06/29 11:37:50;;;;;;;;;;;23.00;99.90;;;;;;4808627;29;19924;-92
2023/06/29 11:40:23;;;;;;;;;;;23.30;99.90;;;;;;4808351;29;19929;-92
2023/06/29 11:43:03;;;;;;;;;;;23.30;99.90;;;;;;4820574;29;19933;-93
2023/06/29 11:45:33;;;;;;;;;;;23.40;99.90;;;;;;4808738;29;20190;-92
2023/06/29 11:48:00;;;;;;;;;;;23.40;99.90;;;;;;4834985;29;19935;-92
2023/06/29 11:50:25;;;;;;;;;;;23.40;99.90;;;;;;4836320;29;19928;-92
2023/06/29 11:52:51;;;;;;;;;;;23.20;99.90;;;;;;4814853;29;20044;-92
2023/06/29 11:55:29;;;;;;;;;;;22.80;99.90;;;;;;4814949;29;20253;-92
2023/06/29 11:57:56;;;;;;;;;;;23.00;99.90;;;;;;4812561;29;20296;-92
2023/06/29 12:00:29;;;;;;;;;;;23.10;99.90;;;;;;4822425;29;19986;-91
2023/06/29 12:03:14;;;;;;;;;;;23.10;99.90;;;;;;4830609;29;19976;-92
2023/06/29 12:05:41;;;;;;;;;;;23.10;99.90;;;;;;4821668;29;19963;-92
2023/06/29 12:08:08;;;;;;;;;;;23.30;99.90;;;;;;4826127;29;20388;-92
2023/06/29 12:10:37;;;;;;;;;;;23.50;99.90;;;;;;4807657;29;19935;-92
2023/06/29 12:13:11;;;;;;;;;;;23.50;99.90;;;;;;4834866;29;20444;-92
2023/06/29 12:15:36;;;;;;;;;;;23.40;99.90;;;;;;4807716;29;19924;-91
2023/06/29 12:18:07;;;;;;;;;;;23.30;99.90;;;;;;4823800;29;19928;-92
2023/06/29 12:21:14;;;;;;;;;;;23.20;99.90;;;;;;4822179;29;19968;-94
2023/06/29 12:23:52;;;;;;;;;;;23.10;99.90;;;;;;4826134;24;19930;-92
2023/06/29 12:26:33;;;;;;;;;;;23.10;99.90;;;;;;4813198;29;19924;-93
2023/06/29 12:29:01;;;;;;;;;;;23.30;99.90;;;;;;4805860;29;20001;-93
2023/06/29 12:31:45;;;;;;;;;;;23.60;99.90;;;;;;4805533;29;19929;-92
2023/06/29 12:34:10;;;;;;;;;;;23.90;99.90;;;;;;4809120;29;19929;-92
2023/06/29 12:37:03;;;;;;;;;;;24.20;99.90;;;;;;4807149;29;20433;-92
2023/06/29 12:39:44;;;;;;;;;;;24.50;99.90;;;;;;4809739;29;19949;-93
2023/06/29 12:42:10;;;;;;;;;;;24.80;99.90;;;;;;4805548;29;19924;-93
2023/06/29 12:44:39;;;;;;;;;;;25.10;99.90;;;;;;4806576;29;19975;-93
2023/06/29 12:47:18;;;;;;;;;;;25.30;99.90;;;;;;4830780;24;19924;-93
2023/06/29 12:50:01;;;;;;;;;;;25.60;99.90;;;;;;4808916;29;20019;-92
2023/06/29 12:52:27;;;;;;;;;;;25.70;99.90;;;;;;4823670;29;19932;-93
2023/06/29 12:54:53;;;;;;;;;;;25.80;99.90;;;;;;4832508;29;20352;-93
2023/06/29 12:57:25;;;;;;;;;;;25.80;99.90;;;;;;4807246;29;20034;-91
2023/06/29 13:00:00;;;;;;;;;;;25.70;99.90;;;;;;4825178;29;19924;-93
2023/06/29 13:02:29;;;;;;;;;;;25.80;99.90;;;;;;4807517;29;19936;-93
2023/06/29 13:04:54;;;;;;;;;;;25.80;99.90;;;;;;4816443;29;19928;-93
2023/06/29 13:07:31;;;;;;;;;;;25.60;99.90;;;;;;4828409;29;19924;-92
2023/06/29 13:09:57;;;;;;;;;;;25.60;99.90;;;;;;4830579;29;19933;-92
2023/06/29 13:12:26;;;;;;;;;;;25.60;99.90;;;;;;4834570;29;19928;-91
2023/06/29 13:14:52;;;;;;;;;;;25.50;99.90;;;;;;4823021;29;20385;-91
2023/06/29 13:17:23;;;;;;;;;;;25.40;99.90;;;;;;4810696;29;19975;-93
2023/06/29 13:19:49;;;;;;;;;;;25.30;99.90;;;;;;4811934;29;19980;-91
2023/06/29 13:22:18;;;;;;;;;;;25.30;99.90;;;;;;4837031;29;19924;-91
2023/06/29 13:24:44;;;;;;;;;;;25.40;99.90;;;;;;4811426;29;20003;-91
2023/06/29 13:27:10;;;;;;;;;;;25.60;99.90;;;;;;4810558;29;20464;-92
2023/06/29 13:29:35;;;;;;;;;;;25.70;99.90;;;;;;4812786;29;20432;-91
2023/06/29 13:32:01;;;;;;;;;;;25.80;99.90;;;;;;4835962;29;19996;-92
2023/06/29 13:34:34;;;;;;;;;;;25.80;99.90;;;;;;4810686;29;20373;-93
2023/06/29 13:37:00;;;;;;;;;;;25.90;99.90;;;;;;4810226;29;19935;-91
2023/06/29 13:39:26;;;;;;;;;;;25.60;99.90;;;;;;4811105;29;19928;-92
2023/06/29 13:42:04;;;;;;;;;;;25.90;99.90;;;;;;4810660;29;19924;-91
2023/06/29 13:44:32;;;;;;;;;;;25.80;99.90;;;;;;4810215;29;19924;-91
2023/06/29 13:47:23;;;;;;;;;;;25.60;99.90;;;;;;4818833;29;19928;-92
2023/06/29 13:49:48;;;;;;;;;;;25.60;99.90;;;;;;4808109;29;19979;-90
2023/06/29 13:52:14;;;;;;;;;;;25.40;99.90;;;;;;4820351;29;19964;-91
2023/06/29 13:54:52;;;;;;;;;;;25.30;99.90;;;;;;4816378;29;20365;-91
2023/06/29 13:57:18;;;;;;;;;;;24.90;99.90;;;;;;4840758;29;19930;-90
2023/06/29 14:03:12;;;;;;;;;;;24.20;99.90;;;;;;4837953;23;20305;-95
2023/06/29 14:06:06;;;;;;;;;;;23.70;99.90;;;;;;4804901;29;19980;-93
2023/06/29 14:08:57;;;;;;;;;;;;;;;;;;;;;
2023/06/29 14:14:04;;;;;;;;;;;23.10;99.90;;;;;;4874283;23;20027;-92
2023/06/29 14:16:42;;;;;;;;;;;23.10;99.90;;;;;;4827944;29;19935;-92
2023/06/29 14:19:08;;;;;;;;;;;23.10;99.90;;;;;;4825876;29;19928;-92
2023/06/29 14:22:11;;;;;;;;;;;23.00;99.90;;;;;;4856836;29;20396;-92
2023/06/29 14:24:40;;;;;;;;;;;23.00;99.90;;;;;;4833725;29;19967;-91
2023/06/29 14:27:17;;;;;;;;;;;22.90;99.90;;;;;;4834941;29;19935;-90
2023/06/29 14:29:42;;;;;;;;;;;22.90;99.90;;;;;;4844831;29;20319;-90
2023/06/29 14:32:08;;;;;;;;;;;22.60;99.90;;;;;;4836498;29;20268;-89
2023/06/29 14:34:37;;;;;;;;;;;22.80;99.90;;;;;;4827048;29;20021;-90
2023/06/29 14:37:05;;;;;;;;;;;22.90;99.90;;;;;;4827638;29;19920;-90
2023/06/29 14:39:31;;;;;;;;;;;22.60;99.90;;;;;;4826832;29;19928;-90
2023/06/29 14:41:56;;;;;;;;;;;22.60;99.90;;;;;;4835780;29;20000;-89
2023/06/29 14:44:22;;;;;;;;;;;22.50;99.90;;;;;;4832727;29;19963;-89
2023/06/29 14:46:48;;;;;;;;;;;22.50;99.90;;;;;;4844430;29;20055;-90
2023/06/29 14:49:14;;;;;;;;;;;22.40;99.90;;;;;;4842768;29;20001;-89
2023/06/29 14:51:40;;;;;;;;;;;22.40;99.90;;;;;;4843463;29;19967;-90
2023/06/29 14:54:06;;;;;;;;;;;22.30;99.90;;;;;;4844226;29;19951;-90
2023/06/29 14:56:32;;;;;;;;;;;22.20;99.90;;;;;;4844474;29;20010;-89
2023/06/29 14:59:00;;;;;;;;;;;22.20;99.90;;;;;;4844701;29;19948;-91
2023/06/29 15:01:35;;;;;;;;;;;22.10;99.90;;;;;;4844642;29;20296;-91
2023/06/29 15:04:26;;;;;;;;;;;21.90;99.90;;;;;;4833599;29;19934;-93
2023/06/29 15:06:52;;;;;;;;;;;21.60;99.90;;;;;;4823541;29;20022;-93
2023/06/29 15:09:39;;;;;;;;;;;21.40;99.90;;;;;;4827663;29;19923;-93
2023/06/29 15:12:05;;;;;;;;;;;21.30;99.90;;;;;;4838634;29;19928;-92
2023/06/29 15:14:31;;;;;;;;;;;21.10;99.90;;;;;;4834599;29;19943;-92
2023/06/29 15:17:25;;;;;;;;;;;21.10;99.90;;;;;;4823836;29;20003;-93
2023/06/29 15:19:51;;;;;;;;;;;21.10;99.90;;;;;;4834769;29;19954;-93
2023/06/29 15:22:17;;;;;;;;;;;21.00;99.90;;;;;;4834512;29;20023;-93
2023/06/29 15:24:49;;;;;;;;;;;21.00;99.90;;;;;;4832284;29;19971;-92
2023/06/29 15:27:14;;;;;;;;;;;20.80;99.90;;;;;;4843524;29;19970;-91
2023/06/29 15:29:49;;;;;;;;;;;20.80;99.90;;;;;;4844396;29;19973;-92
2023/06/29 15:32:29;;;;;;;;;;;20.50;99.90;;;;;;4843659;29;20455;-91
2023/06/29 15:34:55;;;;;;;;;;;20.40;99.90;;;;;;4839086;29;19931;-93
2023/06/29 15:37:30;;;;;;;;;;;20.20;99.90;;;;;;4824171;29;19932;-93
2023/06/29 15:39:56;;;;;;;;;;;20.10;99.90;;;;;;4826603;29;19928;-94
2023/06/29 15:42:25;;;;;;;;;;;20.10;99.90;;;;;;4823339;29;19988;-93
2023/06/29 15:44:51;;;;;;;;;;;19.70;99.90;;;;;;4837104;29;19923;-93
2023/06/29 15:47:17;;;;;;;;;;;20.10;99.90;;;;;;4844222;29;19954;-93
2023/06/29 15:49:43;;;;;;;;;;;20.00;99.90;;;;;;4838432;29;19984;-93
2023/06/29 15:52:11;;;;;;;;;;;20.30;99.90;;;;;;4824152;29;19928;-93
2023/06/29 15:54:40;;;;;;;;;;;20.30;99.90;;;;;;4826862;29;20384;-93
2023/06/29 15:57:05;;;;;;;;;;;20.40;99.90;;;;;;4854248;29;19930;-92
2023/06/29 15:59:40;;;;;;;;;;;20.40;99.90;;;;;;4826673;29;19931;-93
2023/06/29 16:02:06;;;;;;;;;;;20.50;99.90;;;;;;4826117;29;19967;-93
2023/06/29 16:04:52;;;;;;;;;;;20.40;99.90;;;;;;4834561;29;19946;-92
2023/06/29 16:07:57;;;;;;;;;;;;;;;;;;;;;
2023/06/29 16:10:32;;;;;;;;;;;20.00;99.90;;;;;;4824639;29;19972;-92
2023/06/29 16:12:58;;;;;;;;;;;20.10;99.90;;;;;;4837001;29;19928;-93
2023/06/29 16:15:26;;;;;;;;;;;20.10;99.90;;;;;;4839786;29;19988;-92
2023/06/29 16:21:04;;;;;;;;;;;20.00;99.90;;;;;;4784514;29;20369;-92
2023/06/29 16:23:32;;;;;;;;;;;20.00;99.90;;;;;;4843507;29;20019;-92
2023/06/29 16:26:10;;;;;;;;;;;20.00;99.90;;;;;;4830011;29;20373;-93
2023/06/29 16:28:46;;;;;;;;;;;20.10;99.90;;;;;;4835408;29;20295;-92
2023/06/29 16:31:38;;;;;;;;;;;20.40;99.90;;;;;;4829086;29;19940;-92
2023/06/29 16:34:09;;;;;;;;;;;20.20;99.90;;;;;;4825046;29;20023;-92
2023/06/29 16:36:46;;;;;;;;;;;20.10;99.90;;;;;;4825285;29;19927;-92
2023/06/29 16:39:14;;;;;;;;;;;19.50;99.90;;;;;;4823724;29;20032;-91
2023/06/29 16:41:41;;;;;;;;;;;19.80;99.90;;;;;;4822328;29;19992;-92
2023/06/29 16:44:27;;;;;;;;;;;19.70;99.90;;;;;;4821806;29;19932;-91
2023/06/29 16:46:52;;;;;;;;;;;19.50;99.90;;;;;;4845064;29;19948;-92
2023/06/29 16:49:59;;;;;;;;;;;19.40;99.90;;;;;;4843595;29;20316;-92
2023/06/29 16:52:54;;;;;;;;;;;19.20;99.90;;;;;;4798382;29;20296;-92
2023/06/29 16:55:42;;;;;;;;;;;19.00;99.90;;;;;;4825387;29;19934;-91
2023/06/29 16:58:39;;;;;;;;;;;18.90;99.90;;;;;;4844502;29;19932;-92
2023/06/29 17:01:05;;;;;;;;;;;19.10;99.90;;;;;;4802071;29;19924;-92
2023/06/29 17:03:38;;;;;;;;;;;18.70;99.90;;;;;;4846854;29;19994;-90
2023/06/29 17:06:32;;;;;;;;;;;;;;;;;;;;;
2023/06/29 17:09:45;;;;;;;;;;;18.60;99.90;;;;;;4846583;29;19927;-91
2023/06/29 17:12:52;;;;;;;;;;;18.50;99.90;;;;;;4792222;29;19928;-91
2023/06/29 17:15:34;;;;;;;;;;;18.50;99.90;;;;;;4813997;29;19928;-92
2023/06/29 17:18:17;;;;;;;;;;;18.40;99.90;;;;;;4765953;29;19961;-92
2023/06/29 17:24:04;;;;;;;;;;;17.80;99.90;;;;;;4733646;29;19925;-91
2023/06/29 17:26:47;;;;;;;;;;;18.30;99.90;;;;;;4806891;29;20425;-93
2023/06/29 17:29:23;;;;;;;;;;;;;;;;;;;;;
2023/06/29 17:35:09;;;;;;;;;;;18.00;99.90;;;;;;4800903;29;19957;-93
2023/06/29 17:37:40;;;;;;;;;;;18.00;99.90;;;;;;4812428;29;19953;-93
2023/06/29 17:41:09;;;;;;;;;;;18.00;99.90;;;;;;4821861;29;19921;-93
2023/06/29 17:44:42;;;;;;;;;;;17.90;99.90;;;;;;4832122;29;19977;-93
2023/06/29 17:47:36;;;;;;;;;;;17.70;99.90;;;;;;4822617;29;19949;-92
2023/06/29 17:51:05;;;;;;;;;;;;;;;;;;;;;
